Time,TemperatureF,DewpointF,PressureIn,WindDirection,WindDirectionDegrees,WindSpeedMPH,WindSpeedGustMPH,Humidity,HourlyPrecipIn,Conditions,Clouds,dailyrainin,SolarRadiationWatts/m^2,SoftwareType,DateUTC
2013-03-01 00:02:00,32.0,32.0,-100.00,West,278,0.0,2.0,99,0.00,,,0.71,0.000000,,2013-03-01 05:02:00,
2013-03-01 00:33:00,31.0,31.0,-100.00,North,351,0.0,2.0,99,0.00,,,0.71,0.000000,,2013-03-01 05:33:00,
2013-03-01 00:42:00,31.0,31.0,-100.00,North,351,0.0,2.0,99,0.00,,,0.71,0.000000,,2013-03-01 05:42:00,
2013-03-01 00:53:00,31.0,31.0,-100.00,North,351,0.0,2.0,99,0.00,,,0.71,0.000000,,2013-03-01 05:53:00,
2013-03-01 01:02:00,31.0,31.0,-100.00,North,351,0.0,2.0,99,0.00,,,0.71,0.000000,,2013-03-01 06:02:00,
2013-03-01 02:33:00,32.0,32.0,-100.00,North,351,2.0,3.0,99,-99.99,,,0.71,0.000000,,2013-03-01 07:33:00,
2013-03-01 02:42:00,32.0,32.0,-100.00,North,351,2.0,3.0,99,-99.99,,,0.71,0.000000,,2013-03-01 07:42:00,
2013-03-01 02:52:00,32.0,32.0,-100.00,North,351,2.0,3.0,99,-99.99,,,0.71,0.000000,,2013-03-01 07:52:00,
2013-03-01 03:02:00,32.0,32.0,-100.00,North,351,2.0,3.0,99,-99.99,,,0.71,0.000000,,2013-03-01 08:02:00,
2013-03-01 03:33:00,31.0,31.0,-100.00,North,351,1.0,2.0,99,0.00,,,0.71,0.000000,,2013-03-01 08:33:00,
2013-03-01 03:43:00,31.0,31.0,-100.00,North,351,1.0,2.0,99,0.00,,,0.71,0.000000,,2013-03-01 08:43:00,
2013-03-01 03:53:00,31.0,31.0,-100.00,North,351,1.0,2.0,99,0.00,,,0.71,0.000000,,2013-03-01 08:53:00,
2013-03-01 04:02:00,31.0,31.0,-100.00,North,351,1.0,2.0,99,0.00,,,0.71,0.000000,,2013-03-01 09:02:00,
2013-03-01 04:32:00,30.0,30.0,-100.00,North,351,1.0,2.0,99,0.00,,,0.71,0.000000,,2013-03-01 09:32:00,
2013-03-01 04:42:00,30.0,30.0,-100.00,North,351,1.0,2.0,99,0.00,,,0.71,0.000000,,2013-03-01 09:42:00,
2013-03-01 04:53:00,30.0,30.0,-100.00,North,351,1.0,2.0,99,0.00,,,0.71,0.000000,,2013-03-01 09:53:00,
2013-03-01 05:02:00,30.0,30.0,-100.00,North,351,1.0,2.0,99,0.00,,,0.71,0.000000,,2013-03-01 10:02:00,
2013-03-01 05:32:00,30.0,29.0,-100.00,North,351,2.0,4.0,98,0.01,,,0.72,0.000000,,2013-03-01 10:32:00,
2013-03-01 05:42:00,30.0,29.0,-100.00,North,351,2.0,4.0,98,0.01,,,0.72,0.000000,,2013-03-01 10:42:00,
2013-03-01 05:53:00,30.0,29.0,-100.00,North,351,2.0,4.0,98,0.01,,,0.72,0.000000,,2013-03-01 10:53:00,
2013-03-01 06:02:00,30.0,29.0,-100.00,North,351,2.0,4.0,98,0.01,,,0.72,0.000000,,2013-03-01 11:02:00,
2013-03-01 06:32:00,27.0,27.0,-100.00,North,351,0.0,2.0,98,0.00,,,0.72,0.000000,,2013-03-01 11:32:00,
2013-03-01 06:42:00,27.0,27.0,-100.00,North,351,0.0,2.0,98,0.00,,,0.72,0.000000,,2013-03-01 11:42:00,
2013-03-01 06:53:00,27.0,27.0,-100.00,North,351,0.0,2.0,98,0.00,,,0.72,0.000000,,2013-03-01 11:53:00,
2013-03-01 07:02:00,27.0,27.0,-100.00,North,351,0.0,2.0,98,0.00,,,0.72,0.000000,,2013-03-01 12:02:00,
2013-03-01 07:33:00,28.0,28.0,-100.00,North,351,1.0,2.0,98,0.00,,,0.72,13.000000,,2013-03-01 12:33:00,
2013-03-01 07:42:00,28.0,28.0,-100.00,North,351,1.0,2.0,98,0.00,,,0.72,13.000000,,2013-03-01 12:42:00,
2013-03-01 07:52:00,28.0,28.0,-100.00,North,351,1.0,2.0,98,0.00,,,0.72,13.000000,,2013-03-01 12:52:00,
2013-03-01 08:01:00,28.0,28.0,-100.00,North,351,1.0,2.0,98,0.00,,,0.72,13.000000,,2013-03-01 13:01:00,
2013-03-01 08:32:00,31.0,31.0,-100.00,NNW,336,1.0,2.0,98,0.00,,,-99.99,50.000000,,2013-03-01 13:32:00,
2013-03-01 08:42:00,31.0,31.0,-100.00,NNW,336,1.0,2.0,98,0.00,,,-99.99,50.000000,,2013-03-01 13:42:00,
2013-03-01 08:52:00,31.0,31.0,-100.00,NNW,336,1.0,2.0,98,0.00,,,-99.99,50.000000,,2013-03-01 13:52:00,
2013-03-01 09:02:00,31.0,31.0,-100.00,NNW,336,1.0,2.0,98,0.00,,,-99.99,50.000000,,2013-03-01 14:02:00,
2013-03-01 09:32:00,36.0,31.0,-100.00,East,82,1.0,3.0,81,0.00,,,0.71,115.000000,,2013-03-01 14:32:00,
2013-03-01 09:42:00,36.0,31.0,-100.00,East,82,1.0,3.0,81,0.00,,,0.71,115.000000,,2013-03-01 14:42:00,
2013-03-01 09:52:00,36.0,31.0,-100.00,East,82,1.0,3.0,81,0.00,,,0.71,115.000000,,2013-03-01 14:52:00,
2013-03-01 10:02:00,36.0,31.0,-100.00,East,82,1.0,3.0,81,0.00,,,0.71,115.000000,,2013-03-01 15:02:00,
2013-03-01 10:32:00,37.0,31.0,-100.00,ESE,113,1.0,2.0,80,0.00,,,0.69,116.000000,,2013-03-01 15:32:00,
2013-03-01 10:42:00,37.0,31.0,-100.00,ESE,113,1.0,2.0,80,0.00,,,0.69,116.000000,,2013-03-01 15:42:00,
2013-03-01 10:52:00,37.0,31.0,-100.00,ESE,113,1.0,2.0,80,0.00,,,0.69,116.000000,,2013-03-01 15:52:00,
2013-03-01 11:01:00,37.0,31.0,-100.00,ESE,113,1.0,2.0,80,0.00,,,0.69,116.000000,,2013-03-01 16:01:00,
2013-03-01 11:32:00,39.0,31.0,-100.00,WNW,296,1.0,4.0,73,0.00,,,0.66,117.000000,,2013-03-01 16:32:00,
2013-03-01 11:42:00,39.0,31.0,-100.00,WNW,296,1.0,4.0,73,0.00,,,0.66,117.000000,,2013-03-01 16:42:00,
2013-03-01 11:52:00,39.0,31.0,-100.00,WNW,296,1.0,4.0,73,0.00,,,0.66,117.000000,,2013-03-01 16:52:00,
2013-03-01 12:01:00,39.0,31.0,-100.00,WNW,296,1.0,4.0,73,0.00,,,0.66,117.000000,,2013-03-01 17:01:00,
2013-03-01 14:32:00,-999.0,-99.9,-100.00,SW,225,3.0,-999.0,-999,-99.99,,,0.29,,,2013-03-01 19:32:00,
2013-03-01 14:42:00,-999.0,-99.9,-100.00,SW,225,3.0,-999.0,-999,-99.99,,,0.29,,,2013-03-01 19:42:00,
2013-03-01 14:52:00,-999.0,-99.9,-100.00,SW,225,3.0,-999.0,-999,-99.99,,,0.29,,,2013-03-01 19:52:00,
2013-03-01 15:01:00,-999.0,-99.9,-100.00,SW,225,3.0,-999.0,-999,-99.99,,,0.29,,,2013-03-01 20:01:00,
2013-03-01 17:32:00,36.0,28.0,-100.00,SSW,211,2.0,5.0,71,-99.99,,,0.04,48.000000,,2013-03-01 22:32:00,
2013-03-01 17:42:00,36.0,28.0,-100.00,SSW,211,2.0,5.0,71,-99.99,,,0.04,48.000000,,2013-03-01 22:42:00,
2013-03-01 17:52:00,36.0,28.0,-100.00,SSW,211,2.0,5.0,71,-99.99,,,0.04,48.000000,,2013-03-01 22:52:00,
2013-03-01 18:01:00,36.0,28.0,-100.00,SSW,211,2.0,5.0,71,-99.99,,,0.04,48.000000,,2013-03-01 23:01:00,
2013-03-01 18:32:00,34.0,28.0,-100.00,SW,220,1.0,5.0,78,0.00,,,0.03,5.000000,,2013-03-01 23:32:00,
2013-03-01 18:42:00,34.0,28.0,-100.00,SW,220,1.0,5.0,78,0.00,,,0.03,5.000000,,2013-03-01 23:42:00,
2013-03-01 18:52:00,34.0,28.0,-100.00,SW,220,1.0,5.0,78,0.00,,,0.03,5.000000,,2013-03-01 23:52:00,
2013-03-01 19:02:00,34.0,28.0,-100.00,SW,220,1.0,5.0,78,0.00,,,0.03,5.000000,,2013-03-02 00:02:00,
2013-03-01 19:32:00,33.0,28.0,-100.00,NW,309,2.0,4.0,82,0.00,,,0.01,0.000000,,2013-03-02 00:32:00,
2013-03-01 19:42:00,33.0,28.0,-100.00,NW,309,2.0,4.0,82,0.00,,,0.01,0.000000,,2013-03-02 00:42:00,
2013-03-01 19:52:00,33.0,28.0,-100.00,NW,309,2.0,4.0,82,0.00,,,0.01,0.000000,,2013-03-02 00:52:00,
2013-03-01 20:01:00,33.0,28.0,-100.00,NW,309,2.0,4.0,82,0.00,,,0.01,0.000000,,2013-03-02 01:01:00,
2013-03-01 20:32:00,-999.0,-99.9,-100.00,North,-999,1.0,-999.0,-999,0.00,,,0.01,,,2013-03-02 01:32:00,
2013-03-01 20:42:00,-999.0,-99.9,-100.00,North,-999,1.0,-999.0,-999,0.00,,,0.01,,,2013-03-02 01:42:00,
2013-03-01 20:53:00,-999.0,-99.9,-100.00,North,-999,1.0,-999.0,-999,0.00,,,0.01,,,2013-03-02 01:53:00,
2013-03-01 21:02:00,-999.0,-99.9,-100.00,North,-999,1.0,-999.0,-999,0.00,,,0.01,,,2013-03-02 02:02:00,
2013-03-01 21:32:00,32.0,29.0,-100.00,NNW,346,0.0,2.0,87,0.00,,,0.01,0.000000,,2013-03-02 02:32:00,
2013-03-01 21:42:00,32.0,29.0,-100.00,NNW,346,0.0,2.0,87,0.00,,,0.01,0.000000,,2013-03-02 02:42:00,
2013-03-01 21:52:00,32.0,29.0,-100.00,NNW,346,0.0,2.0,87,0.00,,,0.01,0.000000,,2013-03-02 02:52:00,
2013-03-01 22:02:00,32.0,29.0,-100.00,NNW,346,0.0,2.0,87,0.00,,,0.01,0.000000,,2013-03-02 03:02:00,
2013-03-01 22:32:00,31.0,28.0,-100.00,WSW,254,1.0,2.0,88,0.00,,,0.01,0.000000,,2013-03-02 03:32:00,
2013-03-01 22:42:00,31.0,28.0,-100.00,WSW,254,1.0,2.0,88,0.00,,,0.01,0.000000,,2013-03-02 03:42:00,
2013-03-01 22:53:00,31.0,28.0,-100.00,WSW,254,1.0,2.0,88,0.00,,,0.01,0.000000,,2013-03-02 03:53:00,
2013-03-01 23:02:00,31.0,28.0,-100.00,WSW,254,1.0,2.0,88,0.00,,,0.01,0.000000,,2013-03-02 04:02:00,
2013-03-01 23:32:00,31.0,27.0,-100.00,South,175,2.0,4.0,85,0.00,,,0.01,0.000000,,2013-03-02 04:32:00,
2013-03-01 23:42:00,31.0,27.0,-100.00,South,175,2.0,4.0,85,0.00,,,0.01,0.000000,,2013-03-02 04:42:00,
2013-03-01 23:52:00,31.0,27.0,-100.00,South,175,2.0,4.0,85,0.00,,,0.01,0.000000,,2013-03-02 04:52:00,